Time;durP1;ratioP1;P1;durP2;ratioP2;P2;SDS_P1;SDS_P2;PMS_P1;PMS_P2;Temp;Humidity;BMP_temperature;BMP_pressure;BME280_temperature;BME280_humidity;BME280_pressure;Samples;Min_cycle;Max_cycle;Signal;HPM_P1;HPM_P2
2022/07/20 00:00:10;;;;;;;2.90;1.80;;;15.50;1.40;;;17.24;100.00;95556.69;646722;212;31532;-72
2022/07/20 00:02:55;;;;;;;9.75;2.28;;;15.50;1.40;;;17.25;100.00;95554.69;642833;214;31624;-72
2022/07/20 00:05:36;;;;;;;2.60;2.20;;;15.40;1.40;;;17.10;100.00;95554.91;646461;216;31528;-71
2022/07/20 00:11:19;;;;;;;2.30;1.60;;;15.40;1.40;;;16.95;100.00;95558.73;619438;222;32030;-73
2022/07/20 00:11:20;;;;;;;1.90;1.20;;;15.30;1.40;;;16.93;100.00;95556.20;645650;216;31516;-72
2022/07/20 00:14:02;;;;;;;5.32;2.03;;;15.20;1.40;;;16.86;100.00;95555.61;646320;212;32164;-72
2022/07/20 00:16:43;;;;;;;2.12;1.60;;;15.10;1.40;;;16.83;100.00;95554.60;645413;216;31840;-72
2022/07/20 00:19:25;;;;;;;3.33;1.60;;;15.10;1.40;;;16.73;100.00;95556.33;647044;212;31718;-73
2022/07/20 00:22:07;;;;;;;3.33;1.70;;;15.10;1.40;;;16.60;100.00;95553.18;646185;216;31605;-72
2022/07/20 00:24:48;;;;;;;1.83;1.45;;;15.00;1.40;;;16.48;100.00;95550.28;645367;216;32386;-73
2022/07/20 00:27:30;;;;;;;2.60;1.52;;;15.10;1.40;;;16.47;100.00;95550.13;618625;226;32062;-72
2022/07/20 00:30:13;;;;;;;3.62;2.00;;;14.90;1.40;;;16.46;100.00;95549.14;642735;216;31701;-72
2022/07/20 00:32:55;;;;;;;2.55;2.20;;;14.80;1.40;;;16.39;100.00;95546.73;618663;222;31857;-72
2022/07/20 00:35:51;;;;;;;3.80;2.10;;;14.70;1.40;;;16.38;100.00;95546.92;646288;212;32170;-71
2022/07/20 00:38:32;;;;;;;3.67;1.77;;;14.70;1.40;;;16.37;100.00;95547.61;646566;212;31557;-71
2022/07/20 00:41:14;;;;;;;2.15;1.95;;;14.80;1.40;;;16.52;100.00;95543.95;646146;212;31602;-72
2022/07/20 00:44:01;;;;;;;2.05;1.73;;;14.90;1.40;;;16.41;100.00;95545.72;647890;216;32248;-73
2022/07/20 00:46:43;;;;;;;2.20;2.00;;;14.70;1.40;;;16.29;100.00;95543.76;645959;212;31555;-73
2022/07/20 00:49:25;;;;;;;2.53;1.67;;;14.60;1.40;;;16.30;100.00;95534.95;647270;216;31532;-72
2022/07/20 00:52:06;;;;;;;2.33;1.50;;;14.60;1.40;;;16.28;100.00;95532.30;646549;216;31519;-72
2022/07/20 00:54:49;;;;;;;2.40;1.95;;;14.60;1.40;;;16.31;100.00;95528.02;635330;212;31714;-72
2022/07/20 00:57:30;;;;;;;3.20;1.60;;;14.70;1.40;;;16.28;100.00;95527.13;618078;222;32243;-72
2022/07/20 01:00:12;;;;;;;1.77;1.42;;;14.60;1.40;;;16.23;100.00;95531.33;646933;212;31571;-72
2022/07/20 01:02:53;;;;;;;2.05;1.90;;;14.60;1.40;;;16.28;100.00;95537.34;646736;216;32031;-72
2022/07/20 01:05:35;;;;;;;2.10;1.87;;;14.60;1.40;;;16.23;100.00;95536.63;645820;216;31545;-72
2022/07/20 01:08:20;;;;;;;2.28;1.75;;;14.60;1.40;;;16.26;100.00;95535.89;647805;216;31511;-72
2022/07/20 01:11:02;;;;;;;2.90;1.87;;;14.60;1.40;;;16.21;100.00;95533.73;648003;216;31546;-72
2022/07/20 01:13:43;;;;;;;2.20;1.83;;;14.60;1.40;;;16.18;100.00;95531.36;646832;212;31515;-72
2022/07/20 01:16:25;;;;;;;2.17;1.30;;;14.40;1.40;;;16.07;100.00;95529.08;646285;216;32191;-72
2022/07/20 01:19:06;;;;;;;3.03;2.47;;;14.30;1.40;;;15.94;100.00;95534.11;646556;216;31623;-72
2022/07/20 01:21:48;;;;;;;2.05;1.85;;;14.20;1.40;;;15.89;100.00;95527.52;646873;212;32262;-72
2022/07/20 01:24:30;;;;;;;2.55;1.77;;;14.30;1.40;;;15.88;100.00;95527.54;646658;216;31611;-72
2022/07/20 01:27:11;;;;;;;1.90;1.40;;;14.30;1.40;;;15.91;100.00;95531.28;647127;216;31596;-72
2022/07/20 01:29:53;;;;;;;1.95;1.55;;;14.30;1.40;;;15.88;100.00;95528.28;646599;212;31907;-72
2022/07/20 01:32:35;;;;;;;2.70;1.37;;;14.20;1.40;;;15.88;100.00;95527.63;646824;212;42168;-71
2022/07/20 01:35:51;;;;;;;5.15;1.67;;;14.20;1.40;;;15.84;100.00;95522.49;646913;216;31548;-73
2022/07/20 01:38:32;;;;;;;2.13;1.67;;;14.20;1.40;;;15.79;100.00;95521.54;619357;226;42927;-73
2022/07/20 01:41:14;;;;;;;2.00;1.73;;;14.10;1.40;;;15.76;100.00;95523.19;647315;216;31611;-71
2022/07/20 01:43:56;;;;;;;2.67;1.70;;;14.10;1.40;;;15.75;100.00;95520.75;646163;212;31547;-71
2022/07/20 01:46:37;;;;;;;2.28;1.95;;;14.20;1.40;;;15.76;100.00;95518.87;647673;216;31552;-72
2022/07/20 01:49:19;;;;;;;3.20;2.20;;;14.20;1.40;;;15.79;100.00;95518.75;646703;216;31563;-72
2022/07/20 01:52:04;;;;;;;2.50;1.80;;;14.30;1.40;;;15.83;100.00;95516.37;647230;216;31549;-72
2022/07/20 01:54:46;;;;;;;3.70;1.90;;;14.30;1.40;;;15.79;100.00;95518.70;635705;216;31730;-71
2022/07/20 01:57:27;;;;;;;3.75;1.70;;;14.30;1.40;;;15.88;100.00;95519.05;645373;216;31569;-71
2022/07/20 02:00:13;;;;;;;3.00;2.37;;;14.40;1.40;;;15.84;100.00;95518.67;646067;216;32117;-73
2022/07/20 02:02:54;;;;;;;3.50;1.53;;;14.30;1.40;;;15.80;100.00;95519.67;647489;212;31604;-72
2022/07/20 02:05:36;;;;;;;2.90;1.60;;;14.20;1.40;;;15.84;100.00;95515.93;646108;212;31570;-71
2022/07/20 02:08:18;;;;;;;2.20;1.67;;;14.20;1.40;;;15.88;100.00;95518.77;646604;216;31547;-72
2022/07/20 02:11:03;;;;;;;2.28;1.52;;;14.20;1.40;;;15.89;100.00;95518.00;645989;216;31570;-72
2022/07/20 02:13:44;;;;;;;1.87;1.62;;;14.30;1.40;;;15.88;100.00;95517.86;648322;216;31626;-73
2022/07/20 02:16:26;;;;;;;5.82;1.62;;;14.20;1.40;;;15.83;100.00;95519.32;646080;216;31586;-72
2022/07/20 02:19:08;;;;;;;2.58;1.73;;;14.10;1.40;;;15.87;100.00;95514.70;646790;212;31535;-72
2022/07/20 02:21:49;;;;;;;2.60;1.65;;;14.20;1.40;;;15.96;100.00;95517.84;646880;216;31517;-72
2022/07/20 02:27:08;;;;;;;2.20;2.00;;;14.20;1.40;;;15.88;100.00;95511.46;646603;212;32190;-72
2022/07/20 02:29:49;;;;;;;2.25;1.60;;;14.20;1.40;;;15.90;100.00;95509.48;646178;212;31521;-71
2022/07/20 02:32:31;;;;;;;3.17;1.55;;;14.20;1.40;;;15.80;100.00;95509.29;646978;216;31588;-71
2022/07/20 02:35:53;;;;;;;3.40;2.10;;;14.10;1.40;;;15.33;100.00;95512.31;646072;216;32297;-72
2022/07/20 02:38:35;;;;;;;2.42;1.30;;;13.70;1.40;;;15.38;100.00;95512.59;647187;212;31580;-75
2022/07/20 02:41:16;;;;;;;2.00;1.70;;;13.60;1.40;;;15.28;100.00;95509.45;646513;216;31605;-73
2022/07/20 02:43:58;;;;;;;2.37;1.70;;;13.60;1.40;;;15.24;100.00;95506.50;647365;216;32007;-72
2022/07/20 02:46:40;;;;;;;1.70;1.60;;;13.50;1.40;;;15.17;100.00;95508.44;646315;216;31596;-72
2022/07/20 02:49:21;;;;;;;3.35;1.90;;;13.50;1.40;;;14.98;100.00;95507.76;646254;216;31550;-72
2022/07/20 02:52:03;;;;;;;2.75;1.55;;;13.50;1.40;;;15.00;100.00;95508.94;646473;216;31541;-72
2022/07/20 02:54:45;;;;;;;2.55;1.60;;;13.50;1.40;;;14.92;100.00;95508.55;636508;212;31774;-72
2022/07/20 02:57:30;;;;;;;2.60;1.90;;;13.30;1.40;;;14.86;100.00;95510.37;646158;216;31763;-72
2022/07/20 03:00:13;;;;;;;3.03;1.60;;;13.30;1.40;;;14.84;100.00;95512.79;646227;216;42195;-73
2022/07/20 03:02:55;;;;;;;3.00;1.65;;;13.30;1.40;;;14.86;100.00;95516.01;645874;212;42187;-72
2022/07/20 03:05:36;;;;;;;2.42;1.52;;;13.30;1.40;;;14.85;100.00;95521.56;647206;216;42815;-72
2022/07/20 03:08:18;;;;;;;2.40;1.80;;;13.30;1.40;;;14.86;100.00;95525.55;646427;216;43390;-72
2022/07/20 03:11:00;;;;;;;3.35;1.60;;;13.40;1.40;;;15.06;100.00;95525.11;646174;216;31706;-73
2022/07/20 03:13:41;;;;;;;2.90;2.03;;;13.60;1.40;;;15.04;100.00;95523.94;646643;212;32159;-73
2022/07/20 03:16:23;;;;;;;1.80;1.25;;;13.50;1.40;;;14.98;100.00;95528.94;645875;212;42396;-72
2022/07/20 03:19:05;;;;;;;3.33;1.70;;;13.50;1.40;;;15.02;100.00;95530.66;646971;212;31510;-72
2022/07/20 03:21:46;;;;;;;2.12;1.58;;;13.50;1.40;;;15.00;100.00;95533.63;645888;216;42587;-72
2022/07/20 03:24:28;;;;;;;1.95;1.20;;;13.50;1.40;;;15.05;100.00;95533.62;646687;212;31807;-71
2022/07/20 03:27:10;;;;;;;2.58;1.67;;;13.60;1.40;;;15.01;100.00;95534.02;646871;216;31525;-72
2022/07/20 03:29:52;;;;;;;2.20;2.00;;;13.60;1.40;;;15.11;100.00;95531.94;646732;216;42761;-73
2022/07/20 03:32:33;;;;;;;2.17;1.98;;;13.50;1.40;;;15.09;100.00;95536.98;645957;212;31783;-72
2022/07/20 03:35:51;;;;;;;1.50;1.10;;;13.50;1.40;;;15.02;100.00;95539.72;646585;212;31527;-72
2022/07/20 03:38:33;;;;;;;2.10;1.90;;;13.50;1.40;;;14.93;100.00;95536.75;647316;216;42177;-71
2022/07/20 03:41:17;;;;;;;1.70;1.60;;;13.40;1.40;;;14.93;100.00;95537.89;647839;212;42166;-72
2022/07/20 03:44:04;;;;;;;1.60;1.40;;;13.60;1.40;;;15.08;100.00;95532.10;648180;216;31543;-72
2022/07/20 03:46:46;;;;;;;2.12;1.50;;;13.70;1.40;;;15.17;100.00;95532.03;647491;212;31588;-72
2022/07/20 03:49:28;;;;;;;3.28;1.98;;;13.60;1.40;;;15.14;100.00;95532.20;618431;226;43051;-72
2022/07/20 03:52:09;;;;;;;2.17;1.40;;;13.80;1.40;;;15.15;100.00;95529.02;646139;216;42197;-72
2022/07/20 03:54:51;;;;;;;4.10;1.83;;;13.70;1.40;;;15.19;100.00;95529.16;635042;216;42383;-73
2022/07/20 03:57:33;;;;;;;3.40;1.30;;;13.70;1.40;;;15.43;100.00;95531.05;646979;212;31530;-73
2022/07/20 04:00:15;;;;;;;1.92;1.33;;;13.90;1.40;;;15.35;100.00;95534.63;646483;212;31560;-72
2022/07/20 04:02:56;;;;;;;3.42;1.90;;;13.80;1.40;;;15.40;100.00;95534.91;647725;216;31536;-73
2022/07/20 04:05:38;;;;;;;2.50;2.30;;;13.90;1.40;;;15.42;100.00;95540.59;646511;212;32104;-72
2022/07/20 04:08:20;;;;;;;2.00;1.45;;;13.90;1.40;;;15.44;100.00;95540.57;646120;216;32200;-73
2022/07/20 04:11:01;;;;;;;2.50;1.60;;;14.00;1.40;;;15.54;100.00;95540.67;646024;212;31625;-72
2022/07/20 04:13:43;;;;;;;1.65;1.42;;;14.10;1.40;;;15.55;100.00;95541.17;647668;216;31709;-72
2022/07/20 04:18:59;;;;;;;2.15;1.77;;;14.30;1.40;;;15.86;100.00;95541.10;645308;216;31899;-71
2022/07/20 04:21:41;;;;;;;2.90;1.40;;;14.50;1.40;;;15.97;100.00;95541.60;646994;216;31541;-73
2022/07/20 04:24:22;;;;;;;1.92;1.75;;;14.60;1.40;;;16.09;100.00;95541.24;646074;216;31558;-71
2022/07/20 04:27:04;;;;;;;2.15;1.30;;;14.70;1.40;;;16.19;100.00;95542.79;645575;212;31588;-71
2022/07/20 04:29:46;;;;;;;2.12;1.62;;;14.70;1.40;;;16.35;100.00;95539.88;647304;216;32241;-72
2022/07/20 04:32:28;;;;;;;1.30;1.20;;;14.80;1.40;;;16.32;100.00;95539.80;647254;212;32379;-72
2022/07/20 04:35:52;;;;;;;2.85;1.95;;;14.90;1.40;;;16.52;100.00;95540.00;647424;212;31595;-71
2022/07/20 04:38:33;;;;;;;3.83;1.70;;;15.10;1.40;;;16.64;100.00;95539.66;646563;216;31548;-72
2022/07/20 04:41:15;;;;;;;1.60;1.50;;;15.30;1.40;;;16.77;100.00;95546.30;646593;212;31775;-72
2022/07/20 04:43:57;;;;;;;1.87;1.55;;;15.30;1.40;;;16.92;100.00;95551.92;646572;216;31570;-72
2022/07/20 04:46:38;;;;;;;2.90;2.00;;;15.40;1.40;;;17.02;100.00;95546.66;646168;212;31554;-72
2022/07/20 04:49:20;;;;;;;1.83;1.62;;;15.50;1.40;;;17.13;100.00;95546.98;647112;216;31555;-72
2022/07/20 04:52:02;;;;;;;3.63;2.03;;;15.60;1.40;;;17.12;100.00;95546.20;647465;216;31517;-72
2022/07/20 04:54:44;;;;;;;2.17;1.83;;;15.80;1.40;;;17.22;100.00;95548.53;637357;216;42412;-72
2022/07/20 04:57:25;;;;;;;2.87;1.62;;;16.00;1.40;;;17.27;100.00;95553.34;617130;226;32060;-71
2022/07/20 05:00:08;;;;;;;1.75;1.65;;;16.10;1.40;;;17.19;100.00;95554.22;647233;212;32255;-71
2022/07/20 05:02:49;;;;;;;2.90;1.80;;;16.00;1.40;;;17.26;100.00;95559.54;647502;216;31857;-72
2022/07/20 05:05:31;;;;;;;1.60;1.50;;;16.10;1.40;;;17.41;100.00;95560.75;618803;226;35630;-72
2022/07/20 05:08:13;;;;;;;2.10;1.70;;;16.30;1.40;;;17.62;100.00;95553.97;645591;212;31514;-72
2022/07/20 05:10:58;;;;;;;1.70;1.60;;;16.50;1.40;;;17.78;100.00;95552.59;646475;212;31534;-74
2022/07/20 05:13:39;;;;;;;2.30;2.10;;;16.60;1.40;;;17.97;100.00;95551.97;651968;212;31531;-72
2022/07/20 05:16:21;;;;;;;5.20;2.20;;;16.70;1.40;;;18.20;100.00;95556.38;650530;212;31863;-72
2022/07/20 05:19:03;;;;;;;1.90;1.60;;;17.00;1.40;;;18.36;100.00;95554.73;650424;216;31598;-72
2022/07/20 05:21:44;;;;;;;3.20;1.90;;;17.10;1.40;;;18.54;100.00;95550.41;650409;216;31530;-73
2022/07/20 05:24:26;;;;;;;4.37;2.30;;;17.10;1.40;;;18.73;100.00;95554.27;619655;222;32020;-72
2022/07/20 05:27:08;;;;;;;3.50;2.00;;;17.30;1.40;;;18.89;100.00;95549.04;644415;216;31528;-73
2022/07/20 05:29:50;;;;;;;2.17;1.90;;;17.50;1.40;;;19.06;100.00;95546.73;647519;212;31586;-72
2022/07/20 05:32:36;;;;;;;2.40;2.10;;;17.70;1.40;;;19.25;100.00;95552.33;648945;216;31561;-72
2022/07/20 05:35:53;;;;;;;3.17;2.20;;;18.00;1.40;;;19.44;100.00;95550.11;648643;216;31586;-73
2022/07/20 05:38:34;;;;;;;2.55;1.85;;;18.20;1.40;;;19.67;100.00;95553.89;651942;216;31524;-74
2022/07/20 05:41:16;;;;;;;3.25;2.28;;;18.50;1.40;;;19.83;100.00;95553.27;649106;212;31602;-73
2022/07/20 05:43:58;;;;;;;3.35;2.17;;;18.80;1.40;;;20.01;100.00;95547.50;652219;212;31538;-72
2022/07/20 05:46:39;;;;;;;2.85;2.47;;;18.90;1.40;;;20.19;100.00;95548.83;650085;212;32115;-73
2022/07/20 05:49:22;;;;;;;2.37;2.10;;;19.10;1.40;;;20.35;100.00;95552.05;648034;212;31940;-75
2022/07/20 05:52:03;;;;;;;3.17;2.20;;;19.30;1.40;;;20.47;100.00;95556.84;647104;216;31614;-75
2022/07/20 05:54:45;;;;;;;2.40;2.20;;;19.40;1.40;;;20.61;100.00;95556.61;614027;222;32198;-75
2022/07/20 05:57:26;;;;;;;4.53;2.80;;;19.50;1.40;;;20.70;100.00;95554.77;646080;216;31583;-74
2022/07/20 06:00:09;;;;;;;4.05;2.58;;;19.60;1.40;;;20.85;100.00;95555.16;645185;216;31519;-75
2022/07/20 06:02:50;;;;;;;7.70;2.60;;;19.80;1.40;;;21.00;100.00;95557.91;647474;212;31582;-75
2022/07/20 06:05:32;;;;;;;2.83;2.60;;;19.90;1.40;;;21.23;100.00;95561.30;648210;212;31890;-74
2022/07/20 06:08:14;;;;;;;3.92;2.45;;;20.10;1.40;;;21.41;100.00;95563.16;649874;212;42554;-78
2022/07/20 06:11:02;;;;;;;3.12;2.83;;;20.30;1.40;;;21.68;100.00;95564.64;646636;216;31655;-76
2022/07/20 06:13:43;;;;;;;4.95;2.80;;;20.40;1.40;;;21.85;100.00;95560.23;644254;216;31553;-77
2022/07/20 06:16:25;;;;;;;3.28;2.58;;;20.70;1.40;;;22.06;100.00;95555.34;641653;216;31887;-77
2022/07/20 06:19:36;;;;;;;3.10;2.47;;;20.90;1.40;;;22.36;100.00;95550.86;650789;216;35694;-77
2022/07/20 06:22:18;;;;;;;2.90;2.50;;;21.20;1.40;;;22.48;100.00;95551.74;618869;226;43128;-77
2022/07/20 06:24:59;;;;;;;3.35;2.80;;;21.20;1.40;;;22.72;100.00;95554.46;645043;216;32726;-77
2022/07/20 06:27:44;;;;;;;5.72;3.28;;;21.60;1.40;;;22.95;100.00;95552.38;648329;216;31974;-77
2022/07/20 06:30:26;;;;;;;5.27;2.80;;;21.80;1.40;;;23.23;100.00;95550.06;646046;216;42212;-77
2022/07/20 06:35:59;;;;;;;4.25;2.87;;;22.30;1.40;;;23.66;100.00;95547.00;644365;216;31590;-78
2022/07/20 06:38:42;;;;;;;9.13;2.90;;;22.60;1.40;;;23.94;100.00;95552.30;649841;216;31585;-77
2022/07/20 06:41:24;;;;;;;6.82;2.75;;;22.80;1.40;;;24.20;100.00;95550.61;650612;216;31599;-77
2022/07/20 06:44:09;;;;;;;3.53;2.97;;;23.10;1.40;;;24.44;100.00;95553.42;649993;216;31720;-77
2022/07/20 06:46:57;;;;;;;4.12;3.00;;;23.30;1.40;;;24.64;98.22;95549.89;646798;216;31524;-78
2022/07/20 06:49:45;;;;;;;7.53;3.13;;;23.60;1.40;;;24.87;95.42;95551.63;649963;216;35637;-78
2022/07/20 06:52:30;;;;;;;6.45;3.55;;;23.70;1.40;;;25.14;95.61;95551.38;647609;216;31857;-78
2022/07/20 06:55:10;;;;;;;2.90;2.60;;;23.90;1.40;;;25.33;93.22;95555.45;647852;216;31592;-76
2022/07/20 06:57:51;;;;;;;9.13;3.05;;;24.20;1.40;;;25.60;92.18;95559.63;647324;212;42162;-76
2022/07/20 07:00:33;;;;;;;4.28;2.90;;;24.50;1.40;;;25.50;87.80;95558.11;645783;216;31708;-77
2022/07/20 07:03:15;;;;;;;7.00;3.12;;;24.40;1.40;;;25.58;86.63;95556.87;646054;216;31560;-77
2022/07/20 07:05:57;;;;;;;4.32;3.10;;;24.40;1.40;;;25.68;87.22;95557.17;647128;216;32568;-77
2022/07/20 07:08:38;;;;;;;4.05;3.12;;;24.40;1.40;;;25.83;85.18;95559.95;647236;216;42361;-77
2022/07/20 07:11:20;;;;;;;4.87;3.50;;;24.60;1.40;;;25.94;83.71;95563.91;645932;216;42205;-76
2022/07/20 07:14:02;;;;;;;4.10;3.28;;;24.70;1.40;;;26.19;82.37;95566.55;646043;216;31669;-77
2022/07/20 07:16:44;;;;;;;4.70;2.97;;;25.00;1.40;;;26.24;81.44;95563.14;618984;226;31989;-76
2022/07/20 07:19:25;;;;;;;5.55;3.40;;;25.00;1.40;;;26.46;80.08;95566.17;645932;216;31869;-77
2022/07/20 07:22:07;;;;;;;4.18;3.30;;;25.20;1.40;;;26.60;79.71;95565.63;647866;216;39210;-77
2022/07/20 07:29:46;;;;;;;4.50;3.10;;;25.40;1.40;;;27.04;75.47;95563.39;647110;215;31844;-77
2022/07/20 07:32:28;;;;;;;6.75;3.92;;;25.70;1.40;;;27.26;74.73;95558.88;647659;216;31716;-77
2022/07/20 07:35:50;;;;;;;4.33;3.50;;;26.10;1.40;;;27.38;74.47;95553.20;646170;216;31620;-77
2022/07/20 07:38:32;;;;;;;3.95;3.55;;;26.00;1.40;;;27.47;75.14;95553.77;647143;216;31656;-77
2022/07/20 07:41:14;;;;;;;5.82;3.37;;;25.90;1.40;;;27.60;73.44;95549.34;647580;212;31717;-77
2022/07/20 07:46:30;;;;;;;4.37;3.42;;;26.20;1.40;;;27.88;71.00;95548.58;619882;222;31897;-77
2022/07/20 07:49:18;;;;;;;4.12;3.30;;;26.60;1.40;;;28.02;68.93;95550.92;649538;216;31574;-80
2022/07/20 07:52:05;;;;;;;3.80;3.50;;;26.80;1.40;;;28.08;68.19;95553.75;647475;216;32121;-77
2022/07/20 07:54:47;;;;;;;4.80;3.80;;;26.80;1.40;;;28.42;69.40;95550.28;647487;216;31797;-78
2022/07/20 07:57:29;;;;;;;4.90;3.70;;;27.20;1.40;;;28.64;67.33;95552.77;647426;216;31707;-77
2022/07/20 08:00:14;;;;;;;3.50;3.20;;;27.50;1.40;;;28.65;66.56;95554.23;646819;216;31739;-77
2022/07/20 08:02:55;;;;;;;5.18;3.85;;;27.50;1.40;;;28.82;64.80;95556.23;646320;216;31601;-78
2022/07/20 08:05:37;;;;;;;3.95;3.40;;;27.60;1.40;;;28.53;64.88;95553.89;620267;222;31851;-78
2022/07/20 08:08:19;;;;;;;4.40;3.20;;;27.30;1.40;;;28.75;66.08;95554.95;646741;216;31739;-78
2022/07/20 08:11:01;;;;;;;3.53;3.22;;;27.40;1.40;;;29.07;65.73;95553.12;647158;216;31588;-77
2022/07/20 08:14:18;;;;;;;4.50;3.70;;;27.70;1.40;;;29.04;64.25;95550.02;648109;216;31584;-77
2022/07/20 08:17:00;;;;;;;4.25;3.22;;;27.60;1.40;;;29.20;64.11;95546.06;646644;212;31653;-77
2022/07/20 08:19:42;;;;;;;5.60;4.20;;;27.70;1.40;;;29.24;63.84;95547.70;646427;216;42285;-76
2022/07/20 08:22:23;;;;;;;3.55;3.25;;;27.70;1.40;;;29.37;62.90;95543.59;646976;216;42218;-77
2022/07/20 08:25:06;;;;;;;3.65;3.35;;;27.80;1.40;;;29.52;63.41;95543.16;647342;212;31586;-78
2022/07/20 08:27:48;;;;;;;4.12;3.70;;;28.20;1.40;;;29.66;62.32;95540.05;648004;212;31563;-78
2022/07/20 08:30:33;;;;;;;3.47;3.10;;;28.30;1.40;;;29.68;61.52;95538.55;646826;216;31586;-79
2022/07/20 08:38:31;;;;;;;5.50;3.60;;;28.60;1.40;;;30.17;61.40;95538.66;646533;216;31869;-78
2022/07/20 08:41:16;;;;;;;3.80;3.40;;;28.70;1.40;;;30.37;61.87;95536.34;620676;222;42556;-80
2022/07/20 08:44:00;;;;;;;3.90;3.58;;;28.90;1.40;;;30.18;61.10;95536.16;619829;226;32057;-78
2022/07/20 08:46:43;;;;;;;4.15;3.75;;;28.90;1.40;;;30.42;58.80;95537.05;646719;216;42203;-78
2022/07/20 08:49:27;;;;;;;3.58;3.28;;;29.30;1.40;;;30.63;59.41;95542.33;620058;222;31928;-77
2022/07/20 08:52:14;;;;;;;4.87;3.95;;;29.30;1.40;;;30.70;58.44;95541.80;646062;212;31572;-77
2022/07/20 08:54:59;;;;;;;4.28;3.70;;;29.30;1.40;;;30.60;57.39;95542.24;648427;216;31711;-77
2022/07/20 08:57:42;;;;;;;4.30;3.75;;;29.30;1.40;;;30.96;56.63;95543.43;646872;216;31564;-77
2022/07/20 09:00:28;;;;;;;4.22;3.55;;;29.70;1.40;;;31.09;55.88;95544.15;620131;226;31981;-77
2022/07/20 09:03:12;;;;;;;6.60;3.90;;;29.80;1.40;;;31.36;55.88;95544.34;645766;216;31555;-77
2022/07/20 09:08:59;;;;;;;3.92;3.50;;;30.20;1.40;;;31.38;53.53;95549.48;645889;216;31609;-77
2022/07/20 09:11:41;;;;;;;4.35;3.35;;;30.30;1.40;;;31.76;53.29;95544.38;648654;216;32294;-78
2022/07/20 09:14:35;;;;;;;3.53;3.22;;;30.50;1.40;;;31.80;52.56;95541.98;620748;222;32082;-77
2022/07/20 09:17:18;;;;;;;3.83;3.53;;;30.60;1.40;;;32.19;52.86;95538.27;647479;216;31593;-78
2022/07/20 09:20:06;;;;;;;3.92;3.53;;;30.90;1.40;;;32.49;52.36;95535.67;619587;225;31906;-78
2022/07/20 09:22:43;;;;;;;3.87;3.57;;;31.30;1.40;;;32.72;51.64;95537.08;630833;222;31806;-78
2022/07/20 09:25:31;;;;;;;5.25;3.45;;;31.50;1.40;;;33.01;50.07;95530.38;647895;216;31744;-78
2022/07/20 09:28:19;;;;;;;3.30;3.00;;;32.20;1.40;;;34.46;47.55;95532.47;619608;225;31894;-78
2022/07/20 09:31:00;;;;;;;4.30;3.78;;;35.50;1.40;;;35.58;44.98;95536.61;648546;216;31587;-78
2022/07/20 09:35:53;;;;;;;4.00;3.60;;;36.60;1.40;;;36.01;43.85;95525.55;646464;212;31736;-78
2022/07/20 09:39:25;;;;;;;3.67;3.33;;;36.70;99.90;;;36.54;41.94;95527.84;645673;212;31686;-76
2022/07/20 09:42:07;;;;;;;5.90;3.50;;;36.50;1.40;;;37.92;40.99;95526.13;647605;216;31685;-77
2022/07/20 09:44:50;;;;;;;3.40;3.10;;;37.90;1.40;;;37.46;41.24;95520.45;631904;222;31712;-78
2022/07/20 09:47:32;;;;;;;4.50;3.27;;;37.80;99.90;;;37.44;39.99;95525.22;619137;222;33276;-78
2022/07/20 09:50:31;;;;;;;4.57;3.55;;;36.70;1.00;;;36.90;41.36;95529.00;646170;216;31588;-79
2022/07/20 09:53:19;;;;;;;4.55;3.40;;;36.10;99.90;;;37.57;40.88;95527.27;643846;216;31738;-78
2022/07/20 09:56:01;;;;;;;4.00;3.60;;;37.60;99.90;;;38.50;38.92;95526.24;647351;212;32128;-78
2022/07/20 09:58:49;;;;;;;3.50;3.20;;;37.70;99.90;;;38.64;36.76;95522.07;646886;216;31602;-76
2022/07/20 10:01:32;;;;;;;3.78;3.47;;;38.10;99.90;;;38.91;36.55;95520.91;648549;215;31579;-78
2022/07/20 10:04:20;;;;;;;4.00;3.70;;;37.90;99.90;;;40.05;36.69;95518.61;647598;216;32402;-77
2022/07/20 10:07:10;;;;;;;3.90;3.60;;;39.10;99.90;;;42.79;34.65;95511.21;647118;216;32122;-78
2022/07/20 10:09:58;;;;;;;3.83;3.53;;;41.00;99.90;;;42.08;34.08;95511.98;646689;216;31606;-76
2022/07/20 10:12:40;;;;;;;4.50;4.10;;;39.80;99.90;;;41.25;35.87;95513.69;646753;216;31602;-76
2022/07/20 10:15:33;;;;;;;3.90;3.60;;;39.00;99.90;;;41.42;35.08;95515.53;647863;216;31554;-79
2022/07/20 10:18:20;;;;;;;4.20;3.80;;;38.70;99.90;;;40.11;34.25;95518.75;646467;216;32145;-77
2022/07/20 10:21:32;;;;;;;4.70;4.07;;;38.70;1.00;;;40.61;35.37;95514.09;647856;212;31588;-79
2022/07/20 10:24:29;;;;;;;4.40;4.00;;;38.70;99.90;;;41.40;33.42;95515.22;648241;216;31619;-79
2022/07/20 10:27:28;;;;;;;3.70;3.40;;;39.60;99.90;;;42.50;33.17;95509.22;647183;216;31653;-77
2022/07/20 10:30:15;;;;;;;5.55;3.60;;;40.50;99.90;;;41.35;30.44;95520.45;647189;216;31610;-77
2022/07/20 10:32:56;;;;;;;3.13;2.93;;;39.00;1.00;;;41.84;30.36;95513.70;647443;216;31576;-77
2022/07/20 10:36:41;;;;;;;3.55;3.25;;;39.90;99.90;;;42.57;30.37;95508.89;648008;216;32082;-78
2022/07/20 10:38:35;;;;;;;3.50;3.20;;;39.00;1.40;;;41.28;30.47;95511.06;646538;216;31573;-79
2022/07/20 10:44:29;;;;;;;3.70;3.40;;;39.30;99.90;;;40.94;31.08;95506.73;616676;227;42570;-79
2022/07/20 10:47:42;;;;;;;3.20;3.00;;;39.10;99.90;;;43.06;30.20;95501.70;647254;212;31988;-76
2022/07/20 10:50:30;;;;;;;4.03;3.35;;;40.10;99.90;;;43.03;27.48;95502.53;642277;217;31653;-77
2022/07/20 10:56:07;;;;;;;6.20;2.90;;;39.10;99.90;;;42.15;29.05;95496.63;647771;212;31586;-77
2022/07/20 10:58:48;;;;;;;4.73;3.30;;;39.30;99.90;;;42.28;29.27;95496.11;647548;215;42240;-77
2022/07/20 11:01:37;;;;;;;3.30;3.00;;;39.90;99.90;;;41.92;29.57;95495.05;643565;216;31798;-79
2022/07/20 11:04:24;;;;;;;5.03;3.47;;;39.20;99.90;;;42.59;28.69;95497.59;647499;216;31579;-77
2022/07/20 11:07:05;;;;;;;3.03;2.83;;;39.50;99.90;;;44.38;27.20;95487.88;648060;216;31589;-77
2022/07/20 11:09:47;;;;;;;3.90;3.30;;;39.70;99.90;;;42.24;28.19;95489.77;619446;226;31914;-76
2022/07/20 11:12:35;;;;;;;3.80;3.23;;;38.60;99.90;;;39.87;30.33;95488.89;618961;226;32085;-78
2022/07/20 11:15:16;;;;;;;3.83;3.53;;;36.40;99.90;;;38.65;31.51;95492.83;646387;212;31564;-78
2022/07/20 11:17:59;;;;;;;5.67;3.20;;;35.70;99.90;;;38.74;32.43;95490.16;647428;212;31561;-77
2022/07/20 11:20:48;;;;;;;3.92;3.28;;;35.90;99.90;;;38.30;32.68;95493.78;619280;222;31954;-78
2022/07/20 11:23:46;;;;;;;5.15;3.33;;;35.60;1.40;;;38.73;32.00;95487.66;648111;212;32215;-77
2022/07/20 11:26:27;;;;;;;3.85;3.33;;;36.10;99.90;;;38.10;31.84;95492.05;619548;226;31940;-74
2022/07/20 11:30:53;;;;;;;3.13;2.93;;;35.60;99.90;;;37.43;32.41;95482.12;647200;216;31571;-76
2022/07/20 11:35:51;;;;;;;3.28;2.97;;;36.00;99.90;;;38.43;32.11;95474.34;646834;212;31650;-76
2022/07/20 11:38:39;;;;;;;7.12;3.37;;;36.30;1.40;;;38.77;31.55;95471.20;647455;216;31742;-76
2022/07/20 11:41:24;;;;;;;4.05;3.10;;;36.10;99.90;;;38.48;31.74;95466.48;617534;226;32070;-77
2022/07/20 11:44:05;;;;;;;3.58;3.28;;;35.90;1.40;;;38.02;31.38;95476.09;646749;216;31914;-76
2022/07/20 11:46:54;;;;;;;4.37;2.90;;;35.80;99.90;;;38.08;31.40;95477.48;647722;212;32281;-74
2022/07/20 11:49:34;;;;;;;3.40;3.10;;;35.70;99.90;;;38.54;31.42;95465.67;647044;212;31624;-75
2022/07/20 11:52:19;;;;;;;3.87;3.22;;;35.80;99.90;;;38.25;31.83;95472.61;620369;222;32114;-75
2022/07/20 11:55:01;;;;;;;2.83;2.60;;;36.20;99.90;;;38.62;31.55;95468.72;607954;226;42802;-75
2022/07/20 11:57:43;;;;;;;3.17;2.92;;;36.40;99.90;;;38.48;31.71;95465.14;619263;222;32005;-77
2022/07/20 12:00:24;;;;;;;6.40;3.70;;;36.20;1.40;;;37.94;31.77;95471.25;619168;226;31945;-76
2022/07/20 12:03:06;;;;;;;3.50;3.20;;;35.90;1.40;;;38.53;31.30;95466.11;618904;222;32577;-77
2022/07/20 12:05:54;;;;;;;3.53;3.22;;;36.30;1.40;;;38.14;31.80;95466.12;646773;216;42442;-78
2022/07/20 12:08:42;;;;;;;4.10;3.70;;;35.90;1.40;;;38.17;31.98;95464.73;619769;226;31909;-77